Historique des mesures à Cassis (13260), France
Quotidien Résumé Septembre 2, 2021 Unités:  Métrique    US   Métrique/US
Quotidien Hebdomadaire Mensuel Annuel
  Maximum: Minimum: Moyenne:
Température: 16.9 °C 12.1 °C 14.3 °C
Point de rosée: 9 °C 5.8 °C 7.6 °C
Humidité: 72% 51% 65%
Vitesse du vent: 31km/h 0km/h 12.4km/h
Rafales: 50km/h - -
Vent- - WSW
Pression: 1006.4 hPa 1001.8 hPa -
Précipitations: 0.0 mm    
Historical Graphs
 
 
Mesures pour : Septembre 2, 2021
Heure Temperature Point de rosée Pression Vent Vitesse du vent Rafales Humidité Pluie (par heure)
00:11 13.7 °C 5.8 °C 1004.1 hPa WNW 30.6 km/h 49 km/h 59% 0.0 mm
01:10 12.9 °C 6 °C 1004.3 hPa North 22.7 km/h 28.8 km/h 63% 0.0 mm
03:10 12.1 °C 7 °C 1004.6 hPa WNW 2.9 km/h 8.6 km/h 71% 0.0 mm
04:11 12.4 °C 6.9 °C 1004.6 hPa West 19.4 km/h 23 km/h 69% 0.0 mm
05:10 12.9 °C 7.4 °C 1004.9 hPa WNW 11.9 km/h 16.9 km/h 69% 0.0 mm
06:11 12.7 °C 7.8 °C 1005.2 hPa West 2.5 km/h 18.7 km/h 72% 0.0 mm
07:10 12.7 °C 7.2 °C 1005.1 hPa NW 20.9 km/h 25.6 km/h 69% 0.0 mm
08:11 13.8 °C 7.5 °C 1005.7 hPa NNW 13.7 km/h 33.8 km/h 66% 0.0 mm
09:10 14.4 °C 7.9 °C 1006.2 hPa SW 21.2 km/h 40.7 km/h 65% 0.0 mm
10:11 14.9 °C 8.4 °C 1006.4 hPa West 31 km/h 50 km/h 65% 0.0 mm
11:10 15.8 °C 8.1 °C 1006.4 hPa WSW 29.2 km/h 36.7 km/h 60% 0.0 mm
12:11 16.1 °C 8.1 °C 1005.9 hPa WNW 17.6 km/h 30.2 km/h 59% 0.0 mm
14:11 16.7 °C 6.5 °C 1004.2 hPa WNW 15.8 km/h 32.4 km/h 51% 0.0 mm
15:10 16.9 °C 7.2 °C 1004.2 hPa WSW 23.4 km/h 25.6 km/h 53% 0.0 mm
16:11 15.9 °C 7.9 °C 1004.4 hPa NW 3.2 km/h 12.6 km/h 59% 0.0 mm
17:10 15.5 °C 8 °C 1004.2 hPa Calm   4.7 km/h 61% 0.0 mm
18:11 14.4 °C 8.3 °C 1003.7 hPa Calm   4 km/h 67% 0.0 mm
19:10 13.8 °C 8.4 °C 1003.6 hPa Calm   10.1 km/h 70% 0.0 mm
20:11 14.1 °C 8.3 °C 1003.4 hPa Calm   5.4 km/h 68% 0.0 mm
21:10 14 °C 7.9 °C 1002.5 hPa North 2.2 km/h 4.3 km/h 67% 0.0 mm
22:11 14.2 °C 8.4 °C 1002.2 hPa Calm   6.1 km/h 68% 0.0 mm
23:10 14.6 °C 9 °C 1001.8 hPa ESE 4 km/h 5.4 km/h 69% 0.0 mm
Observations météo à CASSIS
WU-History script by Weather Underground - 2 mb